Time;durP1;ratioP1;P1;durP2;ratioP2;P2;SDS_P1;SDS_P2;PMS_P1;PMS_P2;Temp;Humidity;BMP_temperature;BMP_pressure;BME280_temperature;BME280_humidity;BME280_pressure;Samples;Min_cycle;Max_cycle;Signal;HPM_P1;HPM_P2
2021/10/05 00:01:08;;;;;;;;;;;21.00;66.90;;;;;;5053795;28;1216;-71
2021/10/05 00:03:34;;;;;;;;;;;21.00;66.90;;;;;;5054079;28;1339;-71
2021/10/05 00:05:59;;;;;;;;;;;21.00;66.90;;;;;;5054770;28;1265;-70
2021/10/05 00:08:25;;;;;;;;;;;21.00;66.90;;;;;;5054865;28;1343;-71
2021/10/05 00:10:50;;;;;;;;;;;21.00;66.90;;;;;;5054515;28;1380;-70
2021/10/05 00:13:16;;;;;;;;;;;21.00;66.90;;;;;;5054687;28;1311;-70
2021/10/05 00:15:41;;;;;;;;;;;21.00;66.90;;;;;;5054896;28;1335;-70
2021/10/05 00:18:07;;;;;;;;;;;21.00;66.90;;;;;;5054713;28;1944;-70
2021/10/05 00:20:32;;;;;;;;;;;21.00;67.00;;;;;;5054190;28;1411;-70
2021/10/05 00:22:58;;;;;;;;;;;21.00;67.00;;;;;;5054191;28;1055;-70
2021/10/05 00:25:24;;;;;;;;;;;21.00;67.00;;;;;;5054562;28;1411;-71
2021/10/05 00:27:49;;;;;;;;;;;21.00;67.10;;;;;;5054739;28;1063;-70
2021/10/05 00:30:15;;;;;;;;;;;21.00;67.10;;;;;;5053860;28;1301;-71
2021/10/05 00:32:40;;;;;;;;;;;21.00;67.10;;;;;;5053137;28;1305;-70
2021/10/05 00:35:06;;;;;;;;;;;21.00;67.10;;;;;;5054339;28;1055;-70
2021/10/05 00:37:31;;;;;;;;;;;20.90;67.10;;;;;;5052077;28;1960;-70
2021/10/05 00:39:57;;;;;;;;;;;20.90;67.10;;;;;;5052488;28;1336;-70
2021/10/05 00:42:22;;;;;;;;;;;20.90;67.10;;;;;;5053296;28;1409;-70
2021/10/05 00:44:48;;;;;;;;;;;20.90;67.10;;;;;;5054672;28;1413;-71
2021/10/05 00:47:13;;;;;;;;;;;21.00;67.10;;;;;;5054717;28;1305;-70
2021/10/05 00:49:39;;;;;;;;;;;20.90;67.10;;;;;;5054523;28;1357;-70
2021/10/05 00:52:05;;;;;;;;;;;20.90;67.10;;;;;;5053253;28;1051;-70
2021/10/05 00:54:31;;;;;;;;;;;20.90;67.20;;;;;;5054513;28;1252;-70
2021/10/05 00:56:56;;;;;;;;;;;20.90;67.20;;;;;;5052960;28;1910;-70
2021/10/05 00:59:22;;;;;;;;;;;20.90;67.20;;;;;;5052697;28;1362;-71
2021/10/05 01:01:47;;;;;;;;;;;20.90;67.20;;;;;;5053342;28;1321;-70
2021/10/05 01:04:12;;;;;;;;;;;20.90;67.20;;;;;;5053822;28;1086;-70
2021/10/05 01:06:47;;;;;;;;;;;20.90;67.20;;;;;;5053710;28;1264;-70
2021/10/05 01:09:13;;;;;;;;;;;20.90;68.00;;;;;;5054392;28;1278;-71
2021/10/05 01:11:38;;;;;;;;;;;20.90;67.20;;;;;;5053520;28;1364;-71
2021/10/05 01:14:03;;;;;;;;;;;20.90;67.30;;;;;;5052547;28;953;-70
2021/10/05 01:16:29;;;;;;;;;;;20.90;67.30;;;;;;5053497;28;1898;-70
2021/10/05 01:18:54;;;;;;;;;;;20.90;68.10;;;;;;5052972;28;1065;-70
2021/10/05 01:21:20;;;;;;;;;;;20.90;67.30;;;;;;5052717;28;1324;-70
2021/10/05 01:23:46;;;;;;;;;;;20.90;67.40;;;;;;5053742;28;1322;-70
2021/10/05 01:26:11;;;;;;;;;;;20.90;67.30;;;;;;5053214;28;1079;-70
2021/10/05 01:28:37;;;;;;;;;;;20.90;67.40;;;;;;5052520;28;1185;-70
2021/10/05 01:31:02;;;;;;;;;;;20.90;67.40;;;;;;5053645;28;1858;-70
2021/10/05 01:33:28;;;;;;;;;;;20.90;67.40;;;;;;5051737;28;1272;-70
2021/10/05 01:35:54;;;;;;;;;;;20.90;67.40;;;;;;5051973;28;1254;-70
2021/10/05 01:38:19;;;;;;;;;;;20.90;67.40;;;;;;5052748;28;1894;-70
2021/10/05 01:40:45;;;;;;;;;;;20.90;67.40;;;;;;5038981;28;1454;-71
2021/10/05 01:43:10;;;;;;;;;;;20.90;67.40;;;;;;5051770;28;1351;-70
2021/10/05 01:45:37;;;;;;;;;;;20.90;67.30;;;;;;5052986;28;1299;-70
2021/10/05 01:48:03;;;;;;;;;;;20.90;67.20;;;;;;5051350;28;1219;-70
2021/10/05 01:50:29;;;;;;;;;;;20.90;67.20;;;;;;5052330;28;1287;-70
2021/10/05 01:52:54;;;;;;;;;;;20.90;67.20;;;;;;5052992;28;1055;-70
2021/10/05 01:55:21;;;;;;;;;;;20.90;67.10;;;;;;5051365;28;1352;-70
2021/10/05 01:57:47;;;;;;;;;;;21.00;67.10;;;;;;5052883;28;1955;-70
2021/10/05 02:00:12;;;;;;;;;;;21.00;67.00;;;;;;5052235;28;1357;-70
2021/10/05 02:02:38;;;;;;;;;;;21.00;67.00;;;;;;5052633;28;1392;-71
2021/10/05 02:05:03;;;;;;;;;;;21.00;67.00;;;;;;5052581;28;1298;-70
2021/10/05 02:07:29;;;;;;;;;;;21.00;66.90;;;;;;5051518;28;1315;-70
2021/10/05 02:09:54;;;;;;;;;;;21.10;66.90;;;;;;5051212;28;1685;-71
2021/10/05 02:12:20;;;;;;;;;;;21.10;66.90;;;;;;5052259;28;1079;-70
2021/10/05 02:14:45;;;;;;;;;;;21.10;66.80;;;;;;5052515;28;1039;-70
2021/10/05 02:17:11;;;;;;;;;;;21.10;66.80;;;;;;5052801;28;1901;-71
2021/10/05 02:19:37;;;;;;;;;;;21.10;66.70;;;;;;5052827;28;1275;-70
2021/10/05 02:22:03;;;;;;;;;;;21.10;66.70;;;;;;5050286;28;1135;-71
2021/10/05 02:26:54;;;;;;;;;;;21.10;66.60;;;;;;5051650;28;1305;-70
2021/10/05 02:29:19;;;;;;;;;;;21.10;66.60;;;;;;5043343;28;1286;-71
2021/10/05 02:31:44;;;;;;;;;;;21.20;66.70;;;;;;5042597;28;1413;-71
2021/10/05 02:34:10;;;;;;;;;;;21.20;66.40;;;;;;5045919;28;1179;-71
2021/10/05 02:36:35;;;;;;;;;;;21.30;66.50;;;;;;5044812;28;2001;-70
2021/10/05 02:39:03;;;;;;;;;;;21.30;66.50;;;;;;5045505;28;1255;-70
2021/10/05 02:41:29;;;;;;;;;;;21.30;66.50;;;;;;5040828;28;1284;-71
2021/10/05 02:43:54;;;;;;;;;;;21.40;66.50;;;;;;5043830;28;1255;-70
2021/10/05 02:46:19;;;;;;;;;;;21.40;66.70;;;;;;5039090;28;1242;-71
2021/10/05 02:48:45;;;;;;;;;;;21.40;66.60;;;;;;5045122;28;1327;-71
2021/10/05 02:51:10;;;;;;;;;;;21.40;66.50;;;;;;5043929;28;1288;-71
2021/10/05 02:53:36;;;;;;;;;;;21.40;66.50;;;;;;5050876;28;1442;-70
2021/10/05 02:56:01;;;;;;;;;;;21.50;66.60;;;;;;5051705;28;1079;-70
2021/10/05 02:58:27;;;;;;;;;;;21.50;66.60;;;;;;5052233;28;1906;-70
2021/10/05 03:00:52;;;;;;;;;;;21.50;66.80;;;;;;5049741;28;1307;-70
2021/10/05 03:03:17;;;;;;;;;;;21.50;66.70;;;;;;5052104;28;1157;-70
2021/10/05 03:05:43;;;;;;;;;;;21.50;66.70;;;;;;5052153;28;1342;-70
2021/10/05 03:08:08;;;;;;;;;;;21.50;66.80;;;;;;5051791;28;1328;-70
2021/10/05 03:10:34;;;;;;;;;;;21.50;66.90;;;;;;5051428;28;1311;-71
2021/10/05 03:13:00;;;;;;;;;;;21.50;66.90;;;;;;5052392;28;1298;-70
2021/10/05 03:15:25;;;;;;;;;;;21.50;67.60;;;;;;5050957;28;1361;-70
2021/10/05 03:17:50;;;;;;;;;;;21.50;66.80;;;;;;5049976;28;1890;-70
2021/10/05 03:20:16;;;;;;;;;;;21.50;66.90;;;;;;5051776;28;1382;-70
2021/10/05 03:22:41;;;;;;;;;;;21.50;67.00;;;;;;5051930;28;1359;-70
2021/10/05 03:25:07;;;;;;;;;;;21.40;67.00;;;;;;5051185;28;1088;-71
2021/10/05 03:27:35;;;;;;;;;;;21.40;67.10;;;;;;5051924;28;1301;-71
2021/10/05 03:30:01;;;;;;;;;;;21.50;67.20;;;;;;5049877;28;1362;-70
2021/10/05 03:32:26;;;;;;;;;;;21.40;67.30;;;;;;5051803;28;1304;-71
2021/10/05 03:34:52;;;;;;;;;;;21.40;67.30;;;;;;5051699;28;1321;-71
2021/10/05 03:37:17;;;;;;;;;;;21.40;67.30;;;;;;5050601;28;1961;-70
2021/10/05 03:39:43;;;;;;;;;;;21.40;67.40;;;;;;5051703;28;1297;-70
2021/10/05 03:42:08;;;;;;;;;;;21.40;67.40;;;;;;5051315;28;1268;-70
2021/10/05 03:44:34;;;;;;;;;;;21.40;67.50;;;;;;5051720;28;1262;-71
2021/10/05 03:46:59;;;;;;;;;;;21.40;67.60;;;;;;5050015;28;1080;-71
2021/10/05 03:49:25;;;;;;;;;;;21.40;67.70;;;;;;5050793;28;1273;-71
2021/10/05 03:51:50;;;;;;;;;;;21.40;67.70;;;;;;5051229;28;1059;-70
2021/10/05 03:54:16;;;;;;;;;;;21.40;67.70;;;;;;5051803;28;1272;-71
2021/10/05 03:56:41;;;;;;;;;;;21.40;67.70;;;;;;5051495;28;1906;-70
2021/10/05 03:59:07;;;;;;;;;;;21.40;67.70;;;;;;5051396;28;1302;-70
2021/10/05 04:01:32;;;;;;;;;;;21.40;67.80;;;;;;5049657;28;1294;-71
2021/10/05 04:03:57;;;;;;;;;;;21.40;67.70;;;;;;5051646;28;1326;-70
2021/10/05 04:06:23;;;;;;;;;;;21.40;67.80;;;;;;5051421;28;1297;-71
2021/10/05 04:08:48;;;;;;;;;;;21.40;68.00;;;;;;5051600;28;1110;-70
2021/10/05 04:11:14;;;;;;;;;;;21.40;67.80;;;;;;5051135;28;1354;-71
2021/10/05 04:13:40;;;;;;;;;;;21.40;67.90;;;;;;5053253;28;1174;-70
2021/10/05 04:16:05;;;;;;;;;;;21.40;67.80;;;;;;5054586;28;1196;-70
2021/10/05 04:18:31;;;;;;;;;;;21.40;67.80;;;;;;5054811;28;1898;-70
2021/10/05 04:20:56;;;;;;;;;;;21.50;67.90;;;;;;5054366;28;1343;-70
2021/10/05 04:23:21;;;;;;;;;;;21.50;67.80;;;;;;5055168;28;1293;-71
2021/10/05 04:25:47;;;;;;;;;;;21.50;67.80;;;;;;5054792;28;1031;-70
2021/10/05 04:28:12;;;;;;;;;;;21.50;67.80;;;;;;5053351;28;1099;-70
2021/10/05 04:30:38;;;;;;;;;;;21.60;67.90;;;;;;5054491;28;1264;-70
2021/10/05 04:33:03;;;;;;;;;;;21.60;67.70;;;;;;5055149;28;1226;-71
2021/10/05 04:35:29;;;;;;;;;;;21.60;67.70;;;;;;5053589;28;1433;-70
2021/10/05 04:37:54;;;;;;;;;;;21.50;67.70;;;;;;5053349;28;1902;-70
2021/10/05 04:40:19;;;;;;;;;;;21.60;67.70;;;;;;5058727;22;2028;-68
2021/10/05 04:42:45;;;;;;;;;;;21.60;67.70;;;;;;4997307;28;1211;-68
2021/10/05 04:45:10;;;;;;;;;;;21.60;67.60;;;;;;5009405;28;1657;-68
2021/10/05 04:47:36;;;;;;;;;;;21.60;67.80;;;;;;5009238;28;1557;-66
2021/10/05 04:50:05;;;;;;;;;;;21.60;67.60;;;;;;5002761;28;1473;-67
2021/10/05 04:52:30;;;;;;;;;;;21.60;67.50;;;;;;5008594;28;1977;-65
2021/10/05 04:54:55;;;;;;;;;;;21.70;67.80;;;;;;5010167;28;2169;-65
2021/10/05 04:57:21;;;;;;;;;;;21.70;67.50;;;;;;5000739;28;1918;-67
2021/10/05 04:59:46;;;;;;;;;;;21.70;67.50;;;;;;5011740;28;1591;-67
2021/10/05 05:02:12;;;;;;;;;;;21.70;67.50;;;;;;5013410;28;1354;-66
2021/10/05 05:04:37;;;;;;;;;;;21.70;67.60;;;;;;5013482;28;1425;-67
2021/10/05 05:07:03;;;;;;;;;;;21.70;67.50;;;;;;5014370;28;1383;-68
2021/10/05 05:09:28;;;;;;;;;;;21.70;67.60;;;;;;4997456;28;1459;-68
2021/10/05 05:11:54;;;;;;;;;;;21.70;67.50;;;;;;5013223;28;1453;-67
2021/10/05 05:14:20;;;;;;;;;;;21.70;67.50;;;;;;5014402;28;1353;-67
2021/10/05 05:16:47;;;;;;;;;;;21.70;67.50;;;;;;5014693;28;1906;-67
2021/10/05 05:19:12;;;;;;;;;;;21.70;67.60;;;;;;5014372;28;1433;-67
2021/10/05 05:21:38;;;;;;;;;;;21.70;67.40;;;;;;5013958;28;1677;-67
2021/10/05 05:24:03;;;;;;;;;;;21.70;67.50;;;;;;4996728;28;1224;-67
2021/10/05 05:26:29;;;;;;;;;;;21.70;67.60;;;;;;5013618;28;1375;-67
2021/10/05 05:28:54;;;;;;;;;;;21.70;67.60;;;;;;5007709;28;1363;-67
2021/10/05 05:31:20;;;;;;;;;;;21.70;67.80;;;;;;5013359;28;1518;-67
2021/10/05 05:33:45;;;;;;;;;;;21.80;67.60;;;;;;4996656;28;1726;-67
2021/10/05 05:36:11;;;;;;;;;;;21.80;67.70;;;;;;5014216;28;1431;-67
2021/10/05 05:38:36;;;;;;;;;;;21.80;67.60;;;;;;4996234;28;1898;-67
2021/10/05 05:41:01;;;;;;;;;;;21.80;67.60;;;;;;5013032;28;1387;-67
2021/10/05 05:43:27;;;;;;;;;;;21.80;67.50;;;;;;5013849;28;1178;-67
2021/10/05 05:45:52;;;;;;;;;;;21.80;67.60;;;;;;5013888;28;1634;-67
2021/10/05 05:48:18;;;;;;;;;;;21.80;67.60;;;;;;5008126;28;1495;-67
2021/10/05 05:50:44;;;;;;;;;;;21.80;67.50;;;;;;5012812;28;1575;-67
2021/10/05 05:53:09;;;;;;;;;;;21.80;67.50;;;;;;5014006;28;1653;-67
2021/10/05 05:55:34;;;;;;;;;;;21.80;67.50;;;;;;4985141;28;2064;-67
2021/10/05 05:58:07;;;;;;;;;;;21.80;67.50;;;;;;5009935;28;1914;-67
2021/10/05 06:00:32;;;;;;;;;;;21.80;67.60;;;;;;5006638;28;1972;-67
2021/10/05 06:02:58;;;;;;;;;;;21.80;67.60;;;;;;5005741;28;1610;-67
2021/10/05 06:05:24;;;;;;;;;;;21.80;67.60;;;;;;5013608;28;1651;-67
2021/10/05 06:07:49;;;;;;;;;;;21.80;68.40;;;;;;5013769;28;1477;-67
2021/10/05 06:10:14;;;;;;;;;;;21.90;67.70;;;;;;5013363;28;1353;-67
2021/10/05 06:12:41;;;;;;;;;;;21.80;67.70;;;;;;5013425;28;1415;-67
2021/10/05 06:15:10;;;;;;;;;;;21.80;67.60;;;;;;4995713;28;1678;-67
2021/10/05 06:17:39;;;;;;;;;;;21.90;67.60;;;;;;5028768;28;1906;-67
2021/10/05 06:20:05;;;;;;;;;;;21.90;67.60;;;;;;5012335;28;1697;-67
2021/10/05 06:22:31;;;;;;;;;;;21.90;67.70;;;;;;4995920;28;1294;-67
2021/10/05 06:24:56;;;;;;;;;;;21.90;67.60;;;;;;5013428;28;1385;-67
2021/10/05 06:27:22;;;;;;;;;;;21.90;67.70;;;;;;5007694;28;1313;-67
2021/10/05 06:29:47;;;;;;;;;;;21.90;67.60;;;;;;5013018;28;1215;-67
2021/10/05 06:32:13;;;;;;;;;;;21.90;67.60;;;;;;5012558;28;1456;-67
2021/10/05 06:34:38;;;;;;;;;;;21.90;67.60;;;;;;5012371;28;1182;-67
2021/10/05 06:37:04;;;;;;;;;;;21.90;67.60;;;;;;5012834;28;1894;-67
2021/10/05 06:39:29;;;;;;;;;;;21.90;67.70;;;;;;4995206;28;1487;-67
2021/10/05 06:41:55;;;;;;;;;;;21.90;67.70;;;;;;5012751;28;1652;-67
2021/10/05 06:44:22;;;;;;;;;;;22.00;67.90;;;;;;5012837;28;1683;-67
2021/10/05 06:46:48;;;;;;;;;;;21.90;67.70;;;;;;5007435;28;1616;-67
2021/10/05 06:49:13;;;;;;;;;;;21.90;67.90;;;;;;5012922;28;1588;-67
2021/10/05 06:51:38;;;;;;;;;;;22.00;68.00;;;;;;5011953;28;1625;-67
2021/10/05 06:54:04;;;;;;;;;;;21.90;67.90;;;;;;4995410;28;1675;-67
2021/10/05 06:56:30;;;;;;;;;;;21.90;67.80;;;;;;5012090;28;1968;-67
2021/10/05 06:58:55;;;;;;;;;;;22.00;67.80;;;;;;5012730;28;1279;-67
2021/10/05 07:01:21;;;;;;;;;;;22.00;67.80;;;;;;5011643;28;1622;-67
2021/10/05 07:03:46;;;;;;;;;;;22.00;67.90;;;;;;4995210;28;1648;-67
2021/10/05 07:06:12;;;;;;;;;;;22.00;67.80;;;;;;5012773;28;1395;-67
2021/10/05 07:08:39;;;;;;;;;;;22.00;67.80;;;;;;5006224;28;1916;-67
2021/10/05 07:11:04;;;;;;;;;;;22.00;67.80;;;;;;5002608;28;2020;-67
2021/10/05 07:13:30;;;;;;;;;;;22.00;68.00;;;;;;5010868;28;1507;-68
2021/10/05 07:15:56;;;;;;;;;;;22.00;67.80;;;;;;5010231;28;1608;-68
2021/10/05 07:18:21;;;;;;;;;;;22.00;67.80;;;;;;5012990;28;1906;-67
2021/10/05 07:20:46;;;;;;;;;;;22.00;67.80;;;;;;4994448;28;1698;-68
2021/10/05 07:23:12;;;;;;;;;;;22.00;67.80;;;;;;5012311;28;1620;-68
2021/10/05 07:25:37;;;;;;;;;;;22.00;67.80;;;;;;5012340;28;1585;-68
2021/10/05 07:28:03;;;;;;;;;;;22.00;68.00;;;;;;5007390;28;1446;-68
2021/10/05 07:30:28;;;;;;;;;;;22.00;67.90;;;;;;5012230;28;1387;-68
2021/10/05 07:32:55;;;;;;;;;;;22.00;67.90;;;;;;5012302;28;1549;-67
2021/10/05 07:35:21;;;;;;;;;;;22.00;67.80;;;;;;5012799;28;1685;-67
2021/10/05 07:37:46;;;;;;;;;;;22.00;67.90;;;;;;4987127;28;1956;-67
2021/10/05 07:40:15;;;;;;;;;;;22.00;67.80;;;;;;5008346;28;1649;-68
2021/10/05 07:42:41;;;;;;;;;;;22.10;68.00;;;;;;5011690;28;1509;-68
2021/10/05 07:45:06;;;;;;;;;;;22.10;68.00;;;;;;4994006;28;1721;-68
2021/10/05 07:47:32;;;;;;;;;;;22.10;67.90;;;;;;5009505;28;1381;-68
2021/10/05 07:49:57;;;;;;;;;;;22.10;67.90;;;;;;5014394;28;1687;-68
2021/10/05 07:52:23;;;;;;;;;;;22.10;67.90;;;;;;5015303;28;1596;-67
2021/10/05 07:54:48;;;;;;;;;;;22.10;67.90;;;;;;5015165;28;1681;-67
2021/10/05 07:57:13;;;;;;;;;;;22.10;68.00;;;;;;5015183;28;1965;-67
2021/10/05 07:59:39;;;;;;;;;;;22.10;68.00;;;;;;5015317;28;1601;-67
2021/10/05 08:02:04;;;;;;;;;;;22.10;68.00;;;;;;5014810;28;1481;-67
2021/10/05 08:04:30;;;;;;;;;;;22.10;68.00;;;;;;5015585;28;1544;-67
2021/10/05 08:06:55;;;;;;;;;;;22.00;67.90;;;;;;5015938;28;1705;-68
2021/10/05 08:09:35;;;;;;;;;;;22.10;68.10;;;;;;5015493;28;1599;-68
2021/10/05 08:12:00;;;;;;;;;;;22.10;68.00;;;;;;5003647;28;1745;-68
2021/10/05 08:14:26;;;;;;;;;;;22.10;68.10;;;;;;4997863;28;1730;-68
2021/10/05 08:16:51;;;;;;;;;;;22.00;68.10;;;;;;5016065;28;1894;-68
2021/10/05 08:19:18;;;;;;;;;;;22.00;68.10;;;;;;5015868;28;1105;-68
2021/10/05 08:21:43;;;;;;;;;;;22.10;68.10;;;;;;5015513;28;1614;-68
2021/10/05 08:24:09;;;;;;;;;;;22.00;68.20;;;;;;4998320;28;1675;-68
2021/10/05 08:26:34;;;;;;;;;;;22.10;68.30;;;;;;5016198;28;1554;-68
2021/10/05 08:29:00;;;;;;;;;;;22.10;69.00;;;;;;5009607;28;1453;-67
2021/10/05 08:31:25;;;;;;;;;;;22.10;68.10;;;;;;4998025;28;1717;-68
2021/10/05 08:33:50;;;;;;;;;;;22.10;68.20;;;;;;5011667;28;2035;-68
2021/10/05 08:36:16;;;;;;;;;;;22.10;68.10;;;;;;5002147;28;1412;-68
2021/10/05 08:38:42;;;;;;;;;;;22.10;68.10;;;;;;5005116;28;1945;-68
2021/10/05 08:41:07;;;;;;;;;;;22.10;68.10;;;;;;5015156;28;1589;-68
2021/10/05 08:43:33;;;;;;;;;;;22.10;68.10;;;;;;5015742;28;1740;-68
2021/10/05 08:45:58;;;;;;;;;;;22.10;68.10;;;;;;5012484;28;2238;-68
2021/10/05 08:48:30;;;;;;;;;;;22.10;68.10;;;;;;4991987;28;1493;-68
2021/10/05 08:50:55;;;;;;;;;;;22.10;68.20;;;;;;4985854;28;2164;-68
2021/10/05 08:53:21;;;;;;;;;;;22.10;68.40;;;;;;5003148;28;2216;-68
2021/10/05 08:55:46;;;;;;;;;;;22.10;68.40;;;;;;5005652;28;1470;-68
2021/10/05 08:58:12;;;;;;;;;;;22.10;68.40;;;;;;5010702;28;1905;-68
2021/10/05 09:00:38;;;;;;;;;;;22.10;68.30;;;;;;5015157;28;1732;-68
2021/10/05 09:03:03;;;;;;;;;;;22.10;68.30;;;;;;5007107;28;1513;-67
2021/10/05 09:05:29;;;;;;;;;;;22.10;68.20;;;;;;4997600;28;1565;-68
2021/10/05 09:07:57;;;;;;;;;;;22.10;68.20;;;;;;5015206;28;1399;-68
2021/10/05 09:10:23;;;;;;;;;;;22.10;68.20;;;;;;4997674;28;1584;-68
2021/10/05 09:12:49;;;;;;;;;;;22.10;68.30;;;;;;4997547;28;1786;-68
2021/10/05 09:15:14;;;;;;;;;;;22.10;68.30;;;;;;5015068;28;1280;-68
2021/10/05 09:17:40;;;;;;;;;;;22.10;68.30;;;;;;5014917;28;1951;-69
2021/10/05 09:20:38;;;;;;;;;;;22.10;68.30;;;;;;5014391;28;1352;-68
2021/10/05 09:23:07;;;;;;;;;;;22.10;68.30;;;;;;4981656;28;1693;-69
2021/10/05 09:25:39;;;;;;;;;;;22.10;68.30;;;;;;5014883;28;1430;-69
2021/10/05 09:28:14;;;;;;;;;;;22.10;68.30;;;;;;5009692;28;1410;-69
2021/10/05 09:30:39;;;;;;;;;;;22.10;68.30;;;;;;5014259;28;1366;-69
2021/10/05 09:33:05;;;;;;;;;;;22.10;68.30;;;;;;5014861;28;1387;-69
2021/10/05 09:35:43;;;;;;;;;;;22.10;68.30;;;;;;4996984;28;1722;-69
2021/10/05 09:38:09;;;;;;;;;;;22.10;68.40;;;;;;5014542;28;1902;-68
2021/10/05 09:40:35;;;;;;;;;;;22.10;68.30;;;;;;5005979;28;1879;-68
2021/10/05 09:43:00;;;;;;;;;;;22.10;68.40;;;;;;4996847;28;1447;-69
2021/10/05 09:45:29;;;;;;;;;;;22.10;68.40;;;;;;4995512;28;2640;-68
2021/10/05 09:47:55;;;;;;;;;;;22.10;68.40;;;;;;5005205;28;1574;-68
2021/10/05 09:50:25;;;;;;;;;;;22.10;68.60;;;;;;5011842;28;1827;-68
2021/10/05 09:52:51;;;;;;;;;;;22.10;68.40;;;;;;5004967;28;1428;-69
2021/10/05 09:55:17;;;;;;;;;;;22.10;68.50;;;;;;5013370;28;1155;-69
2021/10/05 09:57:42;;;;;;;;;;;22.10;68.50;;;;;;5013431;28;1969;-68
2021/10/05 10:00:09;;;;;;;;;;;22.10;68.40;;;;;;5013001;28;1484;-68
2021/10/05 10:02:35;;;;;;;;;;;22.10;68.50;;;;;;4995950;28;1344;-69
2021/10/05 10:05:00;;;;;;;;;;;22.10;68.50;;;;;;4979499;28;1646;-69
2021/10/05 10:07:26;;;;;;;;;;;22.10;68.40;;;;;;5013557;28;1233;-69
2021/10/05 10:09:51;;;;;;;;;;;22.10;68.50;;;;;;4995438;28;1717;-69
2021/10/05 10:12:17;;;;;;;;;;;22.10;68.60;;;;;;4995468;28;1712;-69
2021/10/05 10:14:42;;;;;;;;;;;22.10;68.50;;;;;;5013278;28;1645;-69
2021/10/05 10:17:07;;;;;;;;;;;22.10;68.50;;;;;;4995751;28;1985;-69
2021/10/05 10:19:36;;;;;;;;;;;22.10;68.60;;;;;;5012387;28;2132;-69
2021/10/05 10:22:05;;;;;;;;;;;22.10;68.60;;;;;;5009778;28;1363;-69
2021/10/05 10:24:41;;;;;;;;;;;22.10;68.70;;;;;;5012994;28;1613;-69
2021/10/05 10:27:07;;;;;;;;;;;22.10;68.80;;;;;;4988531;28;1491;-69
2021/10/05 10:29:32;;;;;;;;;;;22.10;68.70;;;;;;5012191;28;1361;-69
2021/10/05 10:32:07;;;;;;;;;;;22.00;68.70;;;;;;4996673;28;1675;-69
2021/10/05 10:34:32;;;;;;;;;;;22.10;68.80;;;;;;5012961;28;1727;-69
2021/10/05 10:36:58;;;;;;;;;;;22.10;68.80;;;;;;5012867;28;1886;-69
2021/10/05 10:39:25;;;;;;;;;;;22.10;68.80;;;;;;4986785;28;1423;-69
2021/10/05 10:41:51;;;;;;;;;;;22.10;68.90;;;;;;5007838;28;2025;-69
2021/10/05 10:44:17;;;;;;;;;;;22.10;68.90;;;;;;5011344;28;1402;-69
2021/10/05 10:46:42;;;;;;;;;;;22.10;68.90;;;;;;4993299;28;1506;-69
2021/10/05 10:49:18;;;;;;;;;;;22.10;69.00;;;;;;4990395;28;1616;-69
2021/10/05 10:51:44;;;;;;;;;;;22.10;68.80;;;;;;5010608;28;1551;-68
2021/10/05 10:54:13;;;;;;;;;;;22.10;68.90;;;;;;4995817;28;1637;-69
2021/10/05 10:56:40;;;;;;;;;;;22.10;68.90;;;;;;5013015;28;1974;-68
2021/10/05 10:59:06;;;;;;;;;;;22.10;69.00;;;;;;5013420;28;855;-70
2021/10/05 11:01:36;;;;;;;;;;;22.10;68.90;;;;;;5011160;28;2185;-68
2021/10/05 11:04:04;;;;;;;;;;;22.20;69.00;;;;;;5000132;28;2128;-68
2021/10/05 11:06:29;;;;;;;;;;;22.10;68.30;;;;;;5011326;28;1495;-68
2021/10/05 11:08:55;;;;;;;;;;;22.10;67.10;;;;;;5012183;28;1168;-68
2021/10/05 11:11:36;;;;;;;;;;;22.00;66.80;;;;;;5012741;28;1272;-67
2021/10/05 11:14:03;;;;;;;;;;;22.00;66.40;;;;;;5013148;28;1349;-68
2021/10/05 11:16:29;;;;;;;;;;;21.90;66.10;;;;;;4995442;28;1898;-68
2021/10/05 11:19:08;;;;;;;;;;;21.90;65.80;;;;;;5012764;28;1303;-68
2021/10/05 11:21:34;;;;;;;;;;;21.90;65.80;;;;;;5014164;28;1341;-68
2021/10/05 11:24:00;;;;;;;;;;;21.80;65.60;;;;;;4999431;28;1344;-68
2021/10/05 11:26:35;;;;;;;;;;;21.80;65.40;;;;;;5016859;28;1328;-68
2021/10/05 11:29:02;;;;;;;;;;;21.80;65.30;;;;;;4999414;28;1132;-68
2021/10/05 11:31:28;;;;;;;;;;;21.70;65.30;;;;;;5025113;28;1287;-69
2021/10/05 11:34:01;;;;;;;;;;;21.80;65.30;;;;;;4998791;28;1189;-68
2021/10/05 11:36:27;;;;;;;;;;;21.70;65.20;;;;;;5016571;28;1421;-68
2021/10/05 11:38:52;;;;;;;;;;;21.70;65.20;;;;;;5015777;28;1895;-69
2021/10/05 11:41:18;;;;;;;;;;;21.70;65.20;;;;;;5016213;28;1228;-68
2021/10/05 11:43:44;;;;;;;;;;;21.70;65.50;;;;;;4998823;28;1239;-69
2021/10/05 11:46:14;;;;;;;;;;;21.70;65.50;;;;;;5004229;28;1329;-69
2021/10/05 11:48:40;;;;;;;;;;;21.70;65.60;;;;;;4998899;28;1244;-69
2021/10/05 11:51:05;;;;;;;;;;;21.70;65.50;;;;;;4982235;28;1299;-68
2021/10/05 11:53:34;;;;;;;;;;;21.70;65.60;;;;;;5016380;28;1285;-69
2021/10/05 11:56:09;;;;;;;;;;;21.60;65.70;;;;;;5016357;28;1080;-70
2021/10/05 11:58:47;;;;;;;;;;;21.60;65.60;;;;;;4998413;28;1902;-68
2021/10/05 12:01:23;;;;;;;;;;;21.60;65.60;;;;;;5010666;28;2021;-68
2021/10/05 12:03:49;;;;;;;;;;;21.60;65.60;;;;;;4985054;28;1729;-68
2021/10/05 12:06:24;;;;;;;;;;;21.60;65.80;;;;;;5001815;28;1119;-69
2021/10/05 12:08:50;;;;;;;;;;;21.60;65.80;;;;;;5012935;28;1254;-70
2021/10/05 12:11:15;;;;;;;;;;;21.60;65.80;;;;;;5014809;28;1346;-68
2021/10/05 12:13:41;;;;;;;;;;;21.50;65.70;;;;;;5015381;28;1354;-68
2021/10/05 12:16:13;;;;;;;;;;;21.50;65.70;;;;;;5014786;28;1310;-69
2021/10/05 12:18:38;;;;;;;;;;;21.50;65.80;;;;;;5014498;28;1956;-68
2021/10/05 12:21:05;;;;;;;;;;;21.50;66.00;;;;;;5014472;28;1342;-68
2021/10/05 12:23:30;;;;;;;;;;;21.50;65.90;;;;;;5014676;28;1336;-69
2021/10/05 12:26:05;;;;;;;;;;;21.50;65.90;;;;;;5014708;28;1273;-68
2021/10/05 12:28:31;;;;;;;;;;;21.50;65.90;;;;;;5009068;28;1116;-68
2021/10/05 12:30:57;;;;;;;;;;;21.40;65.80;;;;;;5013923;28;1371;-69
2021/10/05 12:33:22;;;;;;;;;;;21.40;66.00;;;;;;5013302;28;1281;-68
2021/10/05 12:35:51;;;;;;;;;;;21.40;65.90;;;;;;5014574;28;1342;-69
2021/10/05 12:38:17;;;;;;;;;;;21.40;66.00;;;;;;4997365;28;1898;-70
2021/10/05 12:40:44;;;;;;;;;;;21.40;66.00;;;;;;4996362;28;1380;-68
2021/10/05 12:43:10;;;;;;;;;;;21.40;66.10;;;;;;4996615;28;1364;-69
2021/10/05 12:45:37;;;;;;;;;;;21.40;66.00;;;;;;4996628;28;1536;-68
2021/10/05 12:48:03;;;;;;;;;;;21.40;66.20;;;;;;4996829;28;1132;-68
2021/10/05 12:50:30;;;;;;;;;;;21.40;66.10;;;;;;5014023;28;1373;-69
2021/10/05 12:52:56;;;;;;;;;;;21.30;66.00;;;;;;5014151;28;1347;-69
2021/10/05 12:55:21;;;;;;;;;;;21.30;66.00;;;;;;5013980;28;1178;-69
2021/10/05 12:57:47;;;;;;;;;;;21.30;66.10;;;;;;4996712;28;1915;-68
2021/10/05 13:00:18;;;;;;;;;;;21.30;66.00;;;;;;5013879;28;1217;-69
2021/10/05 13:02:43;;;;;;;;;;;21.30;66.10;;;;;;5029461;28;1534;-70
2021/10/05 13:05:09;;;;;;;;;;;21.30;66.10;;;;;;5014125;28;1068;-71
2021/10/05 13:07:34;;;;;;;;;;;21.30;66.10;;;;;;5014931;28;1276;-71
2021/10/05 13:09:59;;;;;;;;;;;21.30;66.10;;;;;;5014677;28;1812;-71
2021/10/05 13:12:25;;;;;;;;;;;21.30;66.20;;;;;;5014844;28;1572;-71
2021/10/05 13:14:50;;;;;;;;;;;21.30;66.10;;;;;;5014879;28;1009;-71
2021/10/05 13:17:16;;;;;;;;;;;21.30;66.20;;;;;;5014591;28;1910;-71
2021/10/05 13:19:41;;;;;;;;;;;21.20;66.20;;;;;;4997253;28;1158;-72
2021/10/05 13:22:07;;;;;;;;;;;21.20;66.20;;;;;;5014713;28;1061;-71
2021/10/05 13:24:32;;;;;;;;;;;21.20;66.00;;;;;;5014724;28;1281;-72
2021/10/05 13:26:57;;;;;;;;;;;21.20;66.10;;;;;;5014642;28;1499;-71
2021/10/05 13:29:23;;;;;;;;;;;21.20;66.00;;;;;;5014569;28;1132;-71
2021/10/05 13:31:48;;;;;;;;;;;21.20;66.00;;;;;;5014188;28;1333;-71
2021/10/05 13:34:16;;;;;;;;;;;21.20;66.00;;;;;;5014397;28;1344;-71
2021/10/05 13:36:42;;;;;;;;;;;21.20;66.30;;;;;;5014113;28;1960;-71
2021/10/05 13:39:07;;;;;;;;;;;21.20;66.10;;;;;;5014368;28;1321;-72
2021/10/05 13:41:32;;;;;;;;;;;21.20;66.10;;;;;;5013891;28;1326;-71
2021/10/05 13:43:58;;;;;;;;;;;21.10;66.10;;;;;;5013884;28;1160;-72
2021/10/05 13:46:24;;;;;;;;;;;21.10;66.20;;;;;;5009482;28;1581;-69
2021/10/05 13:48:49;;;;;;;;;;;21.10;66.20;;;;;;5010899;28;1260;-69
2021/10/05 13:51:15;;;;;;;;;;;21.10;66.10;;;;;;5013576;28;1285;-70
2021/10/05 13:53:40;;;;;;;;;;;21.10;66.20;;;;;;5013908;28;1359;-70
2021/10/05 13:56:05;;;;;;;;;;;21.10;66.30;;;;;;5014009;28;1270;-69
2021/10/05 13:58:31;;;;;;;;;;;21.10;66.20;;;;;;5013920;28;1910;-69
2021/10/05 14:00:56;;;;;;;;;;;21.10;66.40;;;;;;5013086;28;1347;-68
2021/10/05 14:03:22;;;;;;;;;;;21.10;66.10;;;;;;5009666;28;2027;-69
2021/10/05 14:05:47;;;;;;;;;;;21.10;66.30;;;;;;5013687;28;1114;-68
2021/10/05 14:08:13;;;;;;;;;;;21.10;66.30;;;;;;5014005;28;1304;-69
2021/10/05 14:10:38;;;;;;;;;;;21.10;66.40;;;;;;5012491;28;1482;-70
2021/10/05 14:13:04;;;;;;;;;;;21.10;66.40;;;;;;5012664;28;1338;-69
2021/10/05 14:15:32;;;;;;;;;;;21.10;66.30;;;;;;5013936;28;1350;-68
2021/10/05 14:17:57;;;;;;;;;;;21.10;66.20;;;;;;5013275;28;1906;-68
2021/10/05 14:20:22;;;;;;;;;;;21.10;66.30;;;;;;5013080;28;1284;-68
2021/10/05 14:22:48;;;;;;;;;;;21.10;66.30;;;;;;5003297;28;2389;-68
2021/10/05 14:25:18;;;;;;;;;;;21.10;66.30;;;;;;4999580;28;1113;-67
2021/10/05 14:27:43;;;;;;;;;;;21.00;66.30;;;;;;5010890;28;1162;-68